sensor_id;sensor_type;location;lat;lon;timestamp;temperature;humidity
40123;DHT22;25832;45.490;4.912;2024-03-02T00:02:13;6.80;99.90
40123;DHT22;25832;45.490;4.912;2024-03-02T00:04:39;6.80;99.90
40123;DHT22;25832;45.490;4.912;2024-03-02T00:07:06;6.70;99.90
40123;DHT22;25832;45.490;4.912;2024-03-02T00:09:32;6.80;99.90
40123;DHT22;25832;45.490;4.912;2024-03-02T00:11:59;6.70;99.90
40123;DHT22;25832;45.490;4.912;2024-03-02T00:14:25;6.80;99.90
40123;DHT22;25832;45.490;4.912;2024-03-02T00:16:51;6.80;99.90
40123;DHT22;25832;45.490;4.912;2024-03-02T00:19:18;6.90;99.90
40123;DHT22;25832;45.490;4.912;2024-03-02T00:21:44;6.90;99.90
40123;DHT22;25832;45.490;4.912;2024-03-02T00:24:31;6.90;99.90
40123;DHT22;25832;45.490;4.912;2024-03-02T00:26:58;6.90;99.90
40123;DHT22;25832;45.490;4.912;2024-03-02T00:29:24;6.90;99.90
40123;DHT22;25832;45.490;4.912;2024-03-02T00:31:50;6.90;99.90
40123;DHT22;25832;45.490;4.912;2024-03-02T00:34:17;6.80;99.90
40123;DHT22;25832;45.490;4.912;2024-03-02T00:36:43;6.80;99.90
40123;DHT22;25832;45.490;4.912;2024-03-02T00:39:12;6.80;99.90
40123;DHT22;25832;45.490;4.912;2024-03-02T00:41:40;6.70;99.90
40123;DHT22;25832;45.490;4.912;2024-03-02T00:44:14;6.70;99.90
40123;DHT22;25832;45.490;4.912;2024-03-02T00:46:42;6.70;99.90
40123;DHT22;25832;45.490;4.912;2024-03-02T00:49:22;6.60;99.90
40123;DHT22;25832;45.490;4.912;2024-03-02T00:51:49;6.60;99.90
40123;DHT22;25832;45.490;4.912;2024-03-02T00:54:22;6.60;99.90
40123;DHT22;25832;45.490;4.912;2024-03-02T00:56:50;6.60;99.90
40123;DHT22;25832;45.490;4.912;2024-03-02T00:59:16;6.60;99.90
40123;DHT22;25832;45.490;4.912;2024-03-02T01:01:42;6.50;99.90
40123;DHT22;25832;45.490;4.912;2024-03-02T01:04:08;6.40;99.90
40123;DHT22;25832;45.490;4.912;2024-03-02T01:06:35;6.40;99.90
40123;DHT22;25832;45.490;4.912;2024-03-02T01:09:02;6.40;99.90
40123;DHT22;25832;45.490;4.912;2024-03-02T01:11:28;6.40;99.90
40123;DHT22;25832;45.490;4.912;2024-03-02T01:13:55;6.50;99.90
40123;DHT22;25832;45.490;4.912;2024-03-02T01:16:21;6.40;99.90
40123;DHT22;25832;45.490;4.912;2024-03-02T01:18:46;6.40;99.90
40123;DHT22;25832;45.490;4.912;2024-03-02T01:21:12;6.50;99.90
40123;DHT22;25832;45.490;4.912;2024-03-02T01:23:38;6.50;99.90
40123;DHT22;25832;45.490;4.912;2024-03-02T01:26:03;6.50;99.90
40123;DHT22;25832;45.490;4.912;2024-03-02T01:28:29;6.50;99.90
40123;DHT22;25832;45.490;4.912;2024-03-02T01:30:55;6.50;99.90
40123;DHT22;25832;45.490;4.912;2024-03-02T01:33:20;6.60;99.90
40123;DHT22;25832;45.490;4.912;2024-03-02T01:35:47;6.60;99.90
40123;DHT22;25832;45.490;4.912;2024-03-02T01:38:13;6.70;99.90
40123;DHT22;25832;45.490;4.912;2024-03-02T01:40:38;6.80;99.90
40123;DHT22;25832;45.490;4.912;2024-03-02T01:43:05;6.90;99.90
40123;DHT22;25832;45.490;4.912;2024-03-02T01:45:31;6.90;99.90
40123;DHT22;25832;45.490;4.912;2024-03-02T01:47:58;7.00;99.90
40123;DHT22;25832;45.490;4.912;2024-03-02T01:50:32;7.00;99.90
40123;DHT22;25832;45.490;4.912;2024-03-02T01:52:58;7.10;99.90
40123;DHT22;25832;45.490;4.912;2024-03-02T01:55:24;7.10;99.90
40123;DHT22;25832;45.490;4.912;2024-03-02T01:57:50;7.10;99.90
40123;DHT22;25832;45.490;4.912;2024-03-02T02:00:17;7.10;99.90
40123;DHT22;25832;45.490;4.912;2024-03-02T02:02:43;7.10;99.90
40123;DHT22;25832;45.490;4.912;2024-03-02T02:05:09;7.20;99.90
40123;DHT22;25832;45.490;4.912;2024-03-02T02:07:35;7.20;99.90
40123;DHT22;25832;45.490;4.912;2024-03-02T02:10:01;7.30;99.90
40123;DHT22;25832;45.490;4.912;2024-03-02T02:12:27;7.30;99.90
40123;DHT22;25832;45.490;4.912;2024-03-02T02:14:53;7.30;99.90
40123;DHT22;25832;45.490;4.912;2024-03-02T02:17:19;7.40;99.90
40123;DHT22;25832;45.490;4.912;2024-03-02T02:19:45;7.40;99.90
40123;DHT22;25832;45.490;4.912;2024-03-02T02:22:11;7.50;99.90
40123;DHT22;25832;45.490;4.912;2024-03-02T02:24:42;7.50;99.90
40123;DHT22;25832;45.490;4.912;2024-03-02T02:27:08;7.60;99.90
40123;DHT22;25832;45.490;4.912;2024-03-02T02:29:36;7.60;99.90
40123;DHT22;25832;45.490;4.912;2024-03-02T02:32:01;7.60;99.90
40123;DHT22;25832;45.490;4.912;2024-03-02T02:34:28;7.60;99.90
40123;DHT22;25832;45.490;4.912;2024-03-02T02:36:53;7.60;99.90
40123;DHT22;25832;45.490;4.912;2024-03-02T02:39:21;7.60;99.90
40123;DHT22;25832;45.490;4.912;2024-03-02T02:41:48;7.60;99.90
40123;DHT22;25832;45.490;4.912;2024-03-02T02:44:13;7.50;99.90
40123;DHT22;25832;45.490;4.912;2024-03-02T02:46:40;7.50;99.90
40123;DHT22;25832;45.490;4.912;2024-03-02T02:49:06;7.50;99.90
40123;DHT22;25832;45.490;4.912;2024-03-02T02:51:32;7.50;99.90
40123;DHT22;25832;45.490;4.912;2024-03-02T02:53:57;7.40;99.90
40123;DHT22;25832;45.490;4.912;2024-03-02T02:56:23;7.40;99.90
40123;DHT22;25832;45.490;4.912;2024-03-02T02:58:49;7.40;99.90
40123;DHT22;25832;45.490;4.912;2024-03-02T03:01:15;7.30;99.90
40123;DHT22;25832;45.490;4.912;2024-03-02T03:03:45;7.30;99.90
40123;DHT22;25832;45.490;4.912;2024-03-02T03:06:11;7.30;99.90
40123;DHT22;25832;45.490;4.912;2024-03-02T03:08:37;7.30;99.90
40123;DHT22;25832;45.490;4.912;2024-03-02T03:11:04;7.30;99.90
40123;DHT22;25832;45.490;4.912;2024-03-02T03:13:31;7.40;99.90
40123;DHT22;25832;45.490;4.912;2024-03-02T03:15:56;7.40;99.90
40123;DHT22;25832;45.490;4.912;2024-03-02T03:18:22;7.40;99.90
40123;DHT22;25832;45.490;4.912;2024-03-02T03:20:47;7.30;99.90
40123;DHT22;25832;45.490;4.912;2024-03-02T03:23:13;7.30;99.90
40123;DHT22;25832;45.490;4.912;2024-03-02T03:25:42;7.40;99.90
40123;DHT22;25832;45.490;4.912;2024-03-02T03:28:08;7.40;99.90
40123;DHT22;25832;45.490;4.912;2024-03-02T03:30:38;7.40;99.90
40123;DHT22;25832;45.490;4.912;2024-03-02T03:33:04;7.40;99.90
40123;DHT22;25832;45.490;4.912;2024-03-02T03:35:33;7.40;99.90
40123;DHT22;25832;45.490;4.912;2024-03-02T03:38:00;7.40;99.90
40123;DHT22;25832;45.490;4.912;2024-03-02T03:40:25;7.40;99.90
40123;DHT22;25832;45.490;4.912;2024-03-02T03:42:51;7.40;99.90
40123;DHT22;25832;45.490;4.912;2024-03-02T03:45:17;7.40;99.90
40123;DHT22;25832;45.490;4.912;2024-03-02T03:47:43;7.40;99.90
40123;DHT22;25832;45.490;4.912;2024-03-02T03:50:09;7.40;99.90
40123;DHT22;25832;45.490;4.912;2024-03-02T03:52:35;7.40;99.90
40123;DHT22;25832;45.490;4.912;2024-03-02T03:55:00;7.40;99.90
40123;DHT22;25832;45.490;4.912;2024-03-02T03:57:26;7.30;99.90
40123;DHT22;25832;45.490;4.912;2024-03-02T03:59:53;7.40;99.90
40123;DHT22;25832;45.490;4.912;2024-03-02T04:02:19;7.40;99.90
40123;DHT22;25832;45.490;4.912;2024-03-02T04:04:44;7.40;99.90
40123;DHT22;25832;45.490;4.912;2024-03-02T04:07:10;7.30;99.90
40123;DHT22;25832;45.490;4.912;2024-03-02T04:09:36;7.40;99.90
40123;DHT22;25832;45.490;4.912;2024-03-02T04:12:01;7.30;99.90
40123;DHT22;25832;45.490;4.912;2024-03-02T04:14:27;7.40;99.90
40123;DHT22;25832;45.490;4.912;2024-03-02T04:16:52;7.30;99.90
40123;DHT22;25832;45.490;4.912;2024-03-02T04:19:18;7.40;99.90
40123;DHT22;25832;45.490;4.912;2024-03-02T04:21:44;7.40;99.90
40123;DHT22;25832;45.490;4.912;2024-03-02T04:24:09;7.50;99.90
40123;DHT22;25832;45.490;4.912;2024-03-02T04:26:35;7.60;99.90
40123;DHT22;25832;45.490;4.912;2024-03-02T04:29:01;7.60;99.90
40123;DHT22;25832;45.490;4.912;2024-03-02T04:31:27;7.60;99.90
40123;DHT22;25832;45.490;4.912;2024-03-02T04:33:52;7.60;99.90
40123;DHT22;25832;45.490;4.912;2024-03-02T04:36:19;7.60;99.90
40123;DHT22;25832;45.490;4.912;2024-03-02T04:38:45;7.70;99.90
40123;DHT22;25832;45.490;4.912;2024-03-02T04:41:10;7.70;99.90
40123;DHT22;25832;45.490;4.912;2024-03-02T04:43:36;7.70;99.90
40123;DHT22;25832;45.490;4.912;2024-03-02T04:46:02;7.70;99.90
40123;DHT22;25832;45.490;4.912;2024-03-02T04:48:27;7.70;99.90
40123;DHT22;25832;45.490;4.912;2024-03-02T04:50:53;7.70;99.90
40123;DHT22;25832;45.490;4.912;2024-03-02T04:53:19;7.70;99.90
40123;DHT22;25832;45.490;4.912;2024-03-02T04:55:44;7.70;99.90
40123;DHT22;25832;45.490;4.912;2024-03-02T04:58:19;7.70;99.90
40123;DHT22;25832;45.490;4.912;2024-03-02T05:00:45;7.70;99.90
40123;DHT22;25832;45.490;4.912;2024-03-02T05:03:12;7.80;99.90
40123;DHT22;25832;45.490;4.912;2024-03-02T05:05:38;7.80;99.90
40123;DHT22;25832;45.490;4.912;2024-03-02T05:08:04;7.80;99.90
40123;DHT22;25832;45.490;4.912;2024-03-02T05:10:30;7.90;99.90
40123;DHT22;25832;45.490;4.912;2024-03-02T05:12:56;7.90;99.90
40123;DHT22;25832;45.490;4.912;2024-03-02T05:15:25;7.90;99.90
40123;DHT22;25832;45.490;4.912;2024-03-02T05:17:51;7.90;99.90
40123;DHT22;25832;45.490;4.912;2024-03-02T05:20:16;7.90;99.90
40123;DHT22;25832;45.490;4.912;2024-03-02T05:22:42;7.90;99.90
40123;DHT22;25832;45.490;4.912;2024-03-02T05:25:08;7.90;99.90
40123;DHT22;25832;45.490;4.912;2024-03-02T05:27:35;7.90;99.90
40123;DHT22;25832;45.490;4.912;2024-03-02T05:30:01;7.90;99.90
40123;DHT22;25832;45.490;4.912;2024-03-02T05:32:27;7.90;99.90
40123;DHT22;25832;45.490;4.912;2024-03-02T05:34:53;8.00;99.90
40123;DHT22;25832;45.490;4.912;2024-03-02T05:37:18;8.00;99.90
40123;DHT22;25832;45.490;4.912;2024-03-02T05:39:45;8.00;99.90
40123;DHT22;25832;45.490;4.912;2024-03-02T05:42:10;8.10;99.90
40123;DHT22;25832;45.490;4.912;2024-03-02T05:44:36;8.10;99.90
40123;DHT22;25832;45.490;4.912;2024-03-02T05:47:02;8.10;99.90
40123;DHT22;25832;45.490;4.912;2024-03-02T05:49:28;8.10;99.90
40123;DHT22;25832;45.490;4.912;2024-03-02T05:51:54;8.10;99.90
40123;DHT22;25832;45.490;4.912;2024-03-02T05:54:20;8.10;99.90
40123;DHT22;25832;45.490;4.912;2024-03-02T05:56:45;8.20;99.90
40123;DHT22;25832;45.490;4.912;2024-03-02T05:59:11;8.10;99.90
40123;DHT22;25832;45.490;4.912;2024-03-02T06:01:42;8.10;99.90
40123;DHT22;25832;45.490;4.912;2024-03-02T06:04:08;8.10;99.90
40123;DHT22;25832;45.490;4.912;2024-03-02T06:06:34;8.10;99.90
40123;DHT22;25832;45.490;4.912;2024-03-02T06:09:01;8.10;99.90
40123;DHT22;25832;45.490;4.912;2024-03-02T06:11:28;8.10;99.90
40123;DHT22;25832;45.490;4.912;2024-03-02T06:13:53;8.10;99.90
40123;DHT22;25832;45.490;4.912;2024-03-02T06:16:19;8.10;99.90
40123;DHT22;25832;45.490;4.912;2024-03-02T06:18:45;8.10;99.90
40123;DHT22;25832;45.490;4.912;2024-03-02T06:21:10;8.10;99.90
40123;DHT22;25832;45.490;4.912;2024-03-02T06:23:36;8.10;99.90
40123;DHT22;25832;45.490;4.912;2024-03-02T06:26:01;8.10;99.90
40123;DHT22;25832;45.490;4.912;2024-03-02T06:28:28;8.10;99.90
40123;DHT22;25832;45.490;4.912;2024-03-02T06:30:54;8.10;99.90
40123;DHT22;25832;45.490;4.912;2024-03-02T06:33:19;8.10;99.90
40123;DHT22;25832;45.490;4.912;2024-03-02T06:35:45;8.10;99.90
40123;DHT22;25832;45.490;4.912;2024-03-02T06:38:11;8.10;99.90
40123;DHT22;25832;45.490;4.912;2024-03-02T06:40:36;8.10;99.90
40123;DHT22;25832;45.490;4.912;2024-03-02T06:43:05;8.10;99.90
40123;DHT22;25832;45.490;4.912;2024-03-02T06:45:30;8.10;99.90
40123;DHT22;25832;45.490;4.912;2024-03-02T06:47:56;8.00;99.90
40123;DHT22;25832;45.490;4.912;2024-03-02T06:50:22;8.00;99.90
40123;DHT22;25832;45.490;4.912;2024-03-02T06:52:47;8.00;99.90
40123;DHT22;25832;45.490;4.912;2024-03-02T06:55:13;8.00;99.90
40123;DHT22;25832;45.490;4.912;2024-03-02T06:57:39;8.10;99.90
40123;DHT22;25832;45.490;4.912;2024-03-02T07:00:04;8.10;99.90
40123;DHT22;25832;45.490;4.912;2024-03-02T07:02:34;8.20;99.90
40123;DHT22;25832;45.490;4.912;2024-03-02T07:05:00;8.20;99.90
40123;DHT22;25832;45.490;4.912;2024-03-02T07:07:25;8.20;99.90
40123;DHT22;25832;45.490;4.912;2024-03-02T07:09:51;8.20;99.90
40123;DHT22;25832;45.490;4.912;2024-03-02T07:12:17;8.30;99.90
40123;DHT22;25832;45.490;4.912;2024-03-02T07:14:42;8.30;99.90
40123;DHT22;25832;45.490;4.912;2024-03-02T07:17:26;8.30;99.90
40123;DHT22;25832;45.490;4.912;2024-03-02T07:19:52;8.40;99.90
40123;DHT22;25832;45.490;4.912;2024-03-02T07:22:18;8.40;99.90
40123;DHT22;25832;45.490;4.912;2024-03-02T07:24:44;8.50;99.90
40123;DHT22;25832;45.490;4.912;2024-03-02T07:27:11;8.50;99.90
40123;DHT22;25832;45.490;4.912;2024-03-02T07:29:38;8.50;99.90
40123;DHT22;25832;45.490;4.912;2024-03-02T07:32:04;8.60;99.90
40123;DHT22;25832;45.490;4.912;2024-03-02T07:34:30;8.60;99.90
40123;DHT22;25832;45.490;4.912;2024-03-02T07:36:56;8.60;99.90
40123;DHT22;25832;45.490;4.912;2024-03-02T07:39:22;8.70;99.90
40123;DHT22;25832;45.490;4.912;2024-03-02T07:41:48;8.70;99.90
40123;DHT22;25832;45.490;4.912;2024-03-02T07:44:14;8.70;99.90
40123;DHT22;25832;45.490;4.912;2024-03-02T07:46:43;8.80;99.90
40123;DHT22;25832;45.490;4.912;2024-03-02T07:49:09;8.90;99.90
40123;DHT22;25832;45.490;4.912;2024-03-02T07:51:35;9.00;99.90
40123;DHT22;25832;45.490;4.912;2024-03-02T07:54:01;9.00;99.90
40123;DHT22;25832;45.490;4.912;2024-03-02T07:56:27;9.10;99.90
40123;DHT22;25832;45.490;4.912;2024-03-02T07:58:53;9.10;99.90
40123;DHT22;25832;45.490;4.912;2024-03-02T08:01:19;9.20;99.90
40123;DHT22;25832;45.490;4.912;2024-03-02T08:03:45;9.20;99.90
40123;DHT22;25832;45.490;4.912;2024-03-02T08:06:18;9.20;99.90
40123;DHT22;25832;45.490;4.912;2024-03-02T08:08:46;9.30;99.90
40123;DHT22;25832;45.490;4.912;2024-03-02T08:11:11;9.30;99.90
40123;DHT22;25832;45.490;4.912;2024-03-02T08:13:38;9.30;99.90
40123;DHT22;25832;45.490;4.912;2024-03-02T08:16:04;9.40;99.90
40123;DHT22;25832;45.490;4.912;2024-03-02T08:18:33;9.30;99.90
40123;DHT22;25832;45.490;4.912;2024-03-02T08:20:58;9.40;99.90
40123;DHT22;25832;45.490;4.912;2024-03-02T08:23:24;9.40;99.90
40123;DHT22;25832;45.490;4.912;2024-03-02T08:25:50;9.40;99.90
40123;DHT22;25832;45.490;4.912;2024-03-02T08:28:15;9.30;99.90
40123;DHT22;25832;45.490;4.912;2024-03-02T08:30:41;9.30;99.90
40123;DHT22;25832;45.490;4.912;2024-03-02T08:33:07;9.30;99.90
40123;DHT22;25832;45.490;4.912;2024-03-02T08:35:32;9.30;99.90
40123;DHT22;25832;45.490;4.912;2024-03-02T08:38:03;9.30;99.90
40123;DHT22;25832;45.490;4.912;2024-03-02T08:40:29;9.20;99.90
40123;DHT22;25832;45.490;4.912;2024-03-02T08:42:54;9.30;99.90
40123;DHT22;25832;45.490;4.912;2024-03-02T08:45:20;9.20;99.90
40123;DHT22;25832;45.490;4.912;2024-03-02T08:47:46;9.20;99.90
40123;DHT22;25832;45.490;4.912;2024-03-02T08:50:12;9.20;99.90
40123;DHT22;25832;45.490;4.912;2024-03-02T08:52:38;9.20;99.90
40123;DHT22;25832;45.490;4.912;2024-03-02T08:55:04;9.30;99.90
40123;DHT22;25832;45.490;4.912;2024-03-02T08:57:30;9.30;99.90
40123;DHT22;25832;45.490;4.912;2024-03-02T08:59:56;9.40;99.90
40123;DHT22;25832;45.490;4.912;2024-03-02T09:02:22;9.40;99.90
40123;DHT22;25832;45.490;4.912;2024-03-02T09:04:49;9.50;99.90
40123;DHT22;25832;45.490;4.912;2024-03-02T09:07:15;9.50;99.90
40123;DHT22;25832;45.490;4.912;2024-03-02T09:09:40;9.50;99.90
40123;DHT22;25832;45.490;4.912;2024-03-02T09:12:07;9.50;99.90
40123;DHT22;25832;45.490;4.912;2024-03-02T09:14:33;9.50;99.90
40123;DHT22;25832;45.490;4.912;2024-03-02T09:16:58;9.60;99.90
40123;DHT22;25832;45.490;4.912;2024-03-02T09:19:24;9.60;99.90
40123;DHT22;25832;45.490;4.912;2024-03-02T09:21:50;9.60;99.90
40123;DHT22;25832;45.490;4.912;2024-03-02T09:24:16;9.70;99.90
40123;DHT22;25832;45.490;4.912;2024-03-02T09:26:41;9.70;99.90
40123;DHT22;25832;45.490;4.912;2024-03-02T09:29:07;9.70;99.90
40123;DHT22;25832;45.490;4.912;2024-03-02T09:31:32;9.70;99.90
40123;DHT22;25832;45.490;4.912;2024-03-02T09:33:58;9.80;99.90
40123;DHT22;25832;45.490;4.912;2024-03-02T09:36:24;9.80;99.90
40123;DHT22;25832;45.490;4.912;2024-03-02T09:38:50;9.80;99.90
40123;DHT22;25832;45.490;4.912;2024-03-02T09:41:15;9.80;99.90
40123;DHT22;25832;45.490;4.912;2024-03-02T09:43:41;9.90;99.90
40123;DHT22;25832;45.490;4.912;2024-03-02T09:46:09;9.90;99.90
40123;DHT22;25832;45.490;4.912;2024-03-02T09:48:35;9.90;99.90
40123;DHT22;25832;45.490;4.912;2024-03-02T09:51:01;9.90;99.90
40123;DHT22;25832;45.490;4.912;2024-03-02T09:53:33;10.00;99.90
40123;DHT22;25832;45.490;4.912;2024-03-02T09:56:02;10.00;99.90
40123;DHT22;25832;45.490;4.912;2024-03-02T09:58:27;10.00;99.90
40123;DHT22;25832;45.490;4.912;2024-03-02T10:00:53;10.10;99.90
40123;DHT22;25832;45.490;4.912;2024-03-02T10:03:19;10.10;99.90
40123;DHT22;25832;45.490;4.912;2024-03-02T10:05:46;10.20;99.90
40123;DHT22;25832;45.490;4.912;2024-03-02T10:08:12;10.30;99.90
40123;DHT22;25832;45.490;4.912;2024-03-02T10:10:41;10.40;99.90
40123;DHT22;25832;45.490;4.912;2024-03-02T10:13:09;10.50;99.90
40123;DHT22;25832;45.490;4.912;2024-03-02T10:15:36;10.60;99.90
40123;DHT22;25832;45.490;4.912;2024-03-02T10:18:12;10.70;99.90
40123;DHT22;25832;45.490;4.912;2024-03-02T10:20:40;10.80;99.90
40123;DHT22;25832;45.490;4.912;2024-03-02T10:23:15;10.80;99.90
40123;DHT22;25832;45.490;4.912;2024-03-02T10:25:43;10.90;99.90
40123;DHT22;25832;45.490;4.912;2024-03-02T10:28:10;11.00;99.90
40123;DHT22;25832;45.490;4.912;2024-03-02T10:30:36;11.10;99.90
40123;DHT22;25832;45.490;4.912;2024-03-02T10:33:02;11.30;99.90
40123;DHT22;25832;45.490;4.912;2024-03-02T10:35:29;11.70;99.90
40123;DHT22;25832;45.490;4.912;2024-03-02T10:37:58;12.00;99.90
40123;DHT22;25832;45.490;4.912;2024-03-02T10:40:24;12.30;99.90
40123;DHT22;25832;45.490;4.912;2024-03-02T10:42:50;12.60;99.90
40123;DHT22;25832;45.490;4.912;2024-03-02T10:45:23;12.90;99.90
40123;DHT22;25832;45.490;4.912;2024-03-02T10:47:49;13.20;99.90
40123;DHT22;25832;45.490;4.912;2024-03-02T10:50:15;13.30;99.60
40123;DHT22;25832;45.490;4.912;2024-03-02T10:52:41;13.40;99.70
40123;DHT22;25832;45.490;4.912;2024-03-02T10:55:10;13.50;99.60
40123;DHT22;25832;45.490;4.912;2024-03-02T11:00:15;13.80;98.60
40123;DHT22;25832;45.490;4.912;2024-03-02T11:02:51;13.80;98.00
40123;DHT22;25832;45.490;4.912;2024-03-02T11:05:27;13.80;98.50
40123;DHT22;25832;45.490;4.912;2024-03-02T11:08:06;13.80;98.10
40123;DHT22;25832;45.490;4.912;2024-03-02T11:10:39;13.80;98.60
40123;DHT22;25832;45.490;4.912;2024-03-02T11:13:09;13.70;97.20
40123;DHT22;25832;45.490;4.912;2024-03-02T11:15:36;13.70;97.50
40123;DHT22;25832;45.490;4.912;2024-03-02T11:18:04;13.60;96.70
40123;DHT22;25832;45.490;4.912;2024-03-02T11:20:37;13.60;96.20
40123;DHT22;25832;45.490;4.912;2024-03-02T11:23:07;13.50;96.70
40123;DHT22;25832;45.490;4.912;2024-03-02T11:25:33;13.60;96.50
40123;DHT22;25832;45.490;4.912;2024-03-02T11:28:02;13.70;96.30
40123;DHT22;25832;45.490;4.912;2024-03-02T11:33:00;14.00;96.60
40123;DHT22;25832;45.490;4.912;2024-03-02T11:35:28;14.10;96.10
40123;DHT22;25832;45.490;4.912;2024-03-02T11:37:54;14.20;95.20
40123;DHT22;25832;45.490;4.912;2024-03-02T11:40:25;14.20;95.10
40123;DHT22;25832;45.490;4.912;2024-03-02T11:42:50;14.30;94.90
40123;DHT22;25832;45.490;4.912;2024-03-02T11:45:17;14.50;95.60
40123;DHT22;25832;45.490;4.912;2024-03-02T11:47:50;14.60;94.70
40123;DHT22;25832;45.490;4.912;2024-03-02T11:50:15;14.60;93.70
40123;DHT22;25832;45.490;4.912;2024-03-02T11:52:42;14.40;93.30
40123;DHT22;25832;45.490;4.912;2024-03-02T11:55:09;14.30;93.50
40123;DHT22;25832;45.490;4.912;2024-03-02T11:57:37;14.30;93.70
40123;DHT22;25832;45.490;4.912;2024-03-02T12:00:03;14.40;94.30
40123;DHT22;25832;45.490;4.912;2024-03-02T12:02:29;14.50;93.50
40123;DHT22;25832;45.490;4.912;2024-03-02T12:04:56;14.70;92.80
40123;DHT22;25832;45.490;4.912;2024-03-02T12:07:23;14.90;93.00
40123;DHT22;25832;45.490;4.912;2024-03-02T12:09:49;15.00;92.90
40123;DHT22;25832;45.490;4.912;2024-03-02T12:12:24;15.30;92.40
40123;DHT22;25832;45.490;4.912;2024-03-02T12:14:51;15.40;91.00
40123;DHT22;25832;45.490;4.912;2024-03-02T12:17:18;15.40;91.20
40123;DHT22;25832;45.490;4.912;2024-03-02T12:19:44;15.40;89.70
40123;DHT22;25832;45.490;4.912;2024-03-02T12:22:11;15.40;91.40
40123;DHT22;25832;45.490;4.912;2024-03-02T12:24:37;15.40;89.70
40123;DHT22;25832;45.490;4.912;2024-03-02T12:27:04;15.40;91.20
40123;DHT22;25832;45.490;4.912;2024-03-02T12:29:30;15.50;91.20
40123;DHT22;25832;45.490;4.912;2024-03-02T12:31:56;15.50;90.40
40123;DHT22;25832;45.490;4.912;2024-03-02T12:34:22;15.30;90.20
40123;DHT22;25832;45.490;4.912;2024-03-02T12:36:48;15.20;91.40
40123;DHT22;25832;45.490;4.912;2024-03-02T12:39:21;15.10;90.80
40123;DHT22;25832;45.490;4.912;2024-03-02T12:41:49;15.00;90.70
40123;DHT22;25832;45.490;4.912;2024-03-02T12:44:17;14.90;91.10
40123;DHT22;25832;45.490;4.912;2024-03-02T12:46:43;14.80;90.50
40123;DHT22;25832;45.490;4.912;2024-03-02T12:49:10;14.60;91.40
40123;DHT22;25832;45.490;4.912;2024-03-02T12:51:37;14.60;91.30
40123;DHT22;25832;45.490;4.912;2024-03-02T12:54:03;14.40;90.50
40123;DHT22;25832;45.490;4.912;2024-03-02T12:56:29;14.40;91.60
40123;DHT22;25832;45.490;4.912;2024-03-02T12:58:55;14.40;90.90
40123;DHT22;25832;45.490;4.912;2024-03-02T13:01:21;14.40;91.20
40123;DHT22;25832;45.490;4.912;2024-03-02T13:03:50;14.40;91.10
40123;DHT22;25832;45.490;4.912;2024-03-02T13:06:17;14.30;91.00
40123;DHT22;25832;45.490;4.912;2024-03-02T13:08:43;14.30;90.30
40123;DHT22;25832;45.490;4.912;2024-03-02T13:11:10;14.30;90.70
40123;DHT22;25832;45.490;4.912;2024-03-02T13:13:35;14.20;90.90
40123;DHT22;25832;45.490;4.912;2024-03-02T13:16:01;14.10;91.30
40123;DHT22;25832;45.490;4.912;2024-03-02T13:18:29;14.00;91.40
40123;DHT22;25832;45.490;4.912;2024-03-02T13:20:54;14.00;91.50
40123;DHT22;25832;45.490;4.912;2024-03-02T13:23:21;13.90;91.30
40123;DHT22;25832;45.490;4.912;2024-03-02T13:25:47;13.90;91.90
40123;DHT22;25832;45.490;4.912;2024-03-02T13:28:13;13.90;91.50
40123;DHT22;25832;45.490;4.912;2024-03-02T13:30:39;13.90;91.50
40123;DHT22;25832;45.490;4.912;2024-03-02T13:33:04;13.90;92.40
40123;DHT22;25832;45.490;4.912;2024-03-02T13:35:30;13.90;92.30
40123;DHT22;25832;45.490;4.912;2024-03-02T13:37:55;13.90;91.90
40123;DHT22;25832;45.490;4.912;2024-03-02T13:40:21;13.90;92.20
40123;DHT22;25832;45.490;4.912;2024-03-02T13:42:49;13.90;92.60
40123;DHT22;25832;45.490;4.912;2024-03-02T13:45:16;14.00;92.60
40123;DHT22;25832;45.490;4.912;2024-03-02T13:47:43;13.90;92.50
40123;DHT22;25832;45.490;4.912;2024-03-02T13:50:09;14.00;92.80
40123;DHT22;25832;45.490;4.912;2024-03-02T13:52:35;14.00;92.90
40123;DHT22;25832;45.490;4.912;2024-03-02T13:55:01;14.10;93.40
40123;DHT22;25832;45.490;4.912;2024-03-02T13:57:27;14.20;93.90
40123;DHT22;25832;45.490;4.912;2024-03-02T13:59:53;14.20;93.30
40123;DHT22;25832;45.490;4.912;2024-03-02T14:02:20;14.20;93.30
40123;DHT22;25832;45.490;4.912;2024-03-02T14:04:45;14.20;93.50
40123;DHT22;25832;45.490;4.912;2024-03-02T14:07:13;14.20;93.40
40123;DHT22;25832;45.490;4.912;2024-03-02T14:09:39;14.20;93.20
40123;DHT22;25832;45.490;4.912;2024-03-02T14:12:05;14.20;93.70
40123;DHT22;25832;45.490;4.912;2024-03-02T14:14:31;14.10;93.80
40123;DHT22;25832;45.490;4.912;2024-03-02T14:16:57;14.10;93.80
40123;DHT22;25832;45.490;4.912;2024-03-02T14:19:26;14.10;93.80
40123;DHT22;25832;45.490;4.912;2024-03-02T14:21:52;14.10;94.30
40123;DHT22;25832;45.490;4.912;2024-03-02T14:24:18;14.10;94.30
40123;DHT22;25832;45.490;4.912;2024-03-02T14:26:43;14.10;94.90
40123;DHT22;25832;45.490;4.912;2024-03-02T14:29:09;14.10;94.20
40123;DHT22;25832;45.490;4.912;2024-03-02T14:31:35;14.10;94.90
40123;DHT22;25832;45.490;4.912;2024-03-02T14:34:00;14.10;94.80
40123;DHT22;25832;45.490;4.912;2024-03-02T14:36:27;14.10;94.80
40123;DHT22;25832;45.490;4.912;2024-03-02T14:38:53;14.10;95.40
40123;DHT22;25832;45.490;4.912;2024-03-02T14:41:19;14.10;95.30
40123;DHT22;25832;45.490;4.912;2024-03-02T14:43:44;14.10;95.40
40123;DHT22;25832;45.490;4.912;2024-03-02T14:46:11;14.10;95.10
40123;DHT22;25832;45.490;4.912;2024-03-02T14:48:37;14.10;95.20
40123;DHT22;25832;45.490;4.912;2024-03-02T14:51:03;14.10;94.70
40123;DHT22;25832;45.490;4.912;2024-03-02T14:53:29;14.10;94.80
40123;DHT22;25832;45.490;4.912;2024-03-02T14:55:55;14.10;94.30
40123;DHT22;25832;45.490;4.912;2024-03-02T14:58:20;14.20;95.20
40123;DHT22;25832;45.490;4.912;2024-03-02T15:00:46;14.20;94.60
40123;DHT22;25832;45.490;4.912;2024-03-02T15:03:12;14.20;94.10
40123;DHT22;25832;45.490;4.912;2024-03-02T15:05:38;14.20;94.20
40123;DHT22;25832;45.490;4.912;2024-03-02T15:08:04;14.20;93.90
40123;DHT22;25832;45.490;4.912;2024-03-02T15:10:31;14.20;94.10
40123;DHT22;25832;45.490;4.912;2024-03-02T15:12:57;14.10;93.50
40123;DHT22;25832;45.490;4.912;2024-03-02T15:15:23;14.20;93.40
40123;DHT22;25832;45.490;4.912;2024-03-02T15:17:48;14.20;93.90
40123;DHT22;25832;45.490;4.912;2024-03-02T15:20:14;14.20;93.40
40123;DHT22;25832;45.490;4.912;2024-03-02T15:22:41;14.20;93.40
40123;DHT22;25832;45.490;4.912;2024-03-02T15:25:07;14.20;93.30
40123;DHT22;25832;45.490;4.912;2024-03-02T15:27:32;14.20;93.20
40123;DHT22;25832;45.490;4.912;2024-03-02T15:29:58;14.20;93.40
40123;DHT22;25832;45.490;4.912;2024-03-02T15:32:24;14.20;93.30
40123;DHT22;25832;45.490;4.912;2024-03-02T15:34:54;14.10;93.60
40123;DHT22;25832;45.490;4.912;2024-03-02T15:37:20;14.10;93.50
40123;DHT22;25832;45.490;4.912;2024-03-02T15:39:46;14.10;93.50
40123;DHT22;25832;45.490;4.912;2024-03-02T15:42:11;14.10;93.50